sensor_id;sensor_type;location;lat;lon;timestamp;P1;durP1;ratioP1;P2;durP2;ratioP2
38787;SDS011;24536;45.488;12.238;2022-12-07T00:01:11;15.77;;;12.55;;
38787;SDS011;24536;45.488;12.238;2022-12-07T00:03:39;20.58;;;14.23;;
38787;SDS011;24536;45.488;12.238;2022-12-07T00:06:06;16.42;;;12.35;;
38787;SDS011;24536;45.488;12.238;2022-12-07T00:08:34;19.63;;;13.88;;
38787;SDS011;24536;45.488;12.238;2022-12-07T00:11:06;20.63;;;14.70;;
38787;SDS011;24536;45.488;12.238;2022-12-07T00:13:34;16.65;;;12.63;;
38787;SDS011;24536;45.488;12.238;2022-12-07T00:16:02;16.83;;;13.05;;
38787;SDS011;24536;45.488;12.238;2022-12-07T00:18:35;17.95;;;12.63;;
38787;SDS011;24536;45.488;12.238;2022-12-07T00:21:06;18.25;;;13.13;;
38787;SDS011;24536;45.488;12.238;2022-12-07T00:23:34;19.02;;;15.02;;
38787;SDS011;24536;45.488;12.238;2022-12-07T00:26:07;31.52;;;19.30;;
38787;SDS011;24536;45.488;12.238;2022-12-07T00:28:36;16.73;;;12.93;;
38787;SDS011;24536;45.488;12.238;2022-12-07T00:31:06;16.95;;;13.05;;
38787;SDS011;24536;45.488;12.238;2022-12-07T00:33:34;21.20;;;14.25;;
38787;SDS011;24536;45.488;12.238;2022-12-07T00:36:01;18.85;;;12.98;;
38787;SDS011;24536;45.488;12.238;2022-12-07T00:38:30;19.85;;;14.68;;
38787;SDS011;24536;45.488;12.238;2022-12-07T00:40:57;17.95;;;13.45;;
38787;SDS011;24536;45.488;12.238;2022-12-07T00:43:24;16.60;;;12.50;;
38787;SDS011;24536;45.488;12.238;2022-12-07T00:45:50;18.50;;;14.60;;
38787;SDS011;24536;45.488;12.238;2022-12-07T00:48:16;19.23;;;14.52;;
38787;SDS011;24536;45.488;12.238;2022-12-07T00:50:42;17.05;;;12.60;;
38787;SDS011;24536;45.488;12.238;2022-12-07T00:53:09;17.75;;;12.82;;
38787;SDS011;24536;45.488;12.238;2022-12-07T00:55:35;16.23;;;12.68;;
38787;SDS011;24536;45.488;12.238;2022-12-07T00:58:01;16.08;;;12.60;;
38787;SDS011;24536;45.488;12.238;2022-12-07T01:00:27;15.77;;;12.48;;
38787;SDS011;24536;45.488;12.238;2022-12-07T01:02:53;16.73;;;13.57;;
38787;SDS011;24536;45.488;12.238;2022-12-07T01:05:19;17.00;;;12.85;;
38787;SDS011;24536;45.488;12.238;2022-12-07T01:07:45;18.88;;;15.07;;
38787;SDS011;24536;45.488;12.238;2022-12-07T01:10:11;19.65;;;11.93;;
38787;SDS011;24536;45.488;12.238;2022-12-07T01:12:38;14.07;;;11.15;;
38787;SDS011;24536;45.488;12.238;2022-12-07T01:15:04;14.60;;;11.88;;
38787;SDS011;24536;45.488;12.238;2022-12-07T01:17:30;13.57;;;11.18;;
38787;SDS011;24536;45.488;12.238;2022-12-07T01:19:56;14.70;;;10.88;;
38787;SDS011;24536;45.488;12.238;2022-12-07T01:22:22;16.23;;;12.90;;
38787;SDS011;24536;45.488;12.238;2022-12-07T01:24:48;14.32;;;11.65;;
38787;SDS011;24536;45.488;12.238;2022-12-07T01:27:13;14.43;;;11.38;;
38787;SDS011;24536;45.488;12.238;2022-12-07T01:29:39;18.27;;;13.30;;
38787;SDS011;24536;45.488;12.238;2022-12-07T01:32:05;14.13;;;10.93;;
38787;SDS011;24536;45.488;12.238;2022-12-07T01:34:31;13.18;;;10.85;;
38787;SDS011;24536;45.488;12.238;2022-12-07T01:36:57;14.93;;;11.90;;
38787;SDS011;24536;45.488;12.238;2022-12-07T01:39:23;13.68;;;11.68;;
38787;SDS011;24536;45.488;12.238;2022-12-07T01:41:50;14.43;;;11.40;;
38787;SDS011;24536;45.488;12.238;2022-12-07T01:46:55;13.35;;;11.48;;
38787;SDS011;24536;45.488;12.238;2022-12-07T01:49:35;14.60;;;11.77;;
38787;SDS011;24536;45.488;12.238;2022-12-07T01:52:21;14.95;;;12.18;;
38787;SDS011;24536;45.488;12.238;2022-12-07T01:54:51;16.13;;;13.07;;
38787;SDS011;24536;45.488;12.238;2022-12-07T01:57:21;14.27;;;11.80;;
38787;SDS011;24536;45.488;12.238;2022-12-07T01:59:48;13.68;;;10.90;;
38787;SDS011;24536;45.488;12.238;2022-12-07T02:02:20;13.63;;;11.25;;
38787;SDS011;24536;45.488;12.238;2022-12-07T02:04:56;15.95;;;12.50;;
38787;SDS011;24536;45.488;12.238;2022-12-07T02:07:24;13.63;;;11.02;;
38787;SDS011;24536;45.488;12.238;2022-12-07T02:09:51;17.67;;;14.13;;
38787;SDS011;24536;45.488;12.238;2022-12-07T02:12:17;16.90;;;12.13;;
38787;SDS011;24536;45.488;12.238;2022-12-07T02:14:44;13.90;;;11.52;;
38787;SDS011;24536;45.488;12.238;2022-12-07T02:20:06;12.88;;;10.57;;
38787;SDS011;24536;45.488;12.238;2022-12-07T02:25:18;14.68;;;11.52;;
38787;SDS011;24536;45.488;12.238;2022-12-07T02:30:58;13.02;;;11.65;;
38787;SDS011;24536;45.488;12.238;2022-12-07T02:36:39;19.30;;;13.80;;
38787;SDS011;24536;45.488;12.238;2022-12-07T02:41:51;15.02;;;10.82;;
38787;SDS011;24536;45.488;12.238;2022-12-07T02:44:22;14.55;;;11.43;;
38787;SDS011;24536;45.488;12.238;2022-12-07T02:46:54;12.85;;;10.45;;
38787;SDS011;24536;45.488;12.238;2022-12-07T02:49:32;13.25;;;9.95;;
38787;SDS011;24536;45.488;12.238;2022-12-07T02:52:00;15.82;;;10.95;;
38787;SDS011;24536;45.488;12.238;2022-12-07T02:54:26;14.20;;;10.68;;
38787;SDS011;24536;45.488;12.238;2022-12-07T03:00:08;14.90;;;11.77;;
38787;SDS011;24536;45.488;12.238;2022-12-07T03:07:54;13.23;;;9.82;;
38787;SDS011;24536;45.488;12.238;2022-12-07T03:16:02;11.88;;;9.75;;
38787;SDS011;24536;45.488;12.238;2022-12-07T03:18:38;15.50;;;12.30;;
38787;SDS011;24536;45.488;12.238;2022-12-07T03:21:10;13.73;;;10.75;;
38787;SDS011;24536;45.488;12.238;2022-12-07T03:23:40;13.70;;;11.75;;
38787;SDS011;24536;45.488;12.238;2022-12-07T03:26:09;12.77;;;9.97;;
38787;SDS011;24536;45.488;12.238;2022-12-07T03:28:40;18.27;;;11.68;;
38787;SDS011;24536;45.488;12.238;2022-12-07T03:31:16;17.23;;;9.95;;
38787;SDS011;24536;45.488;12.238;2022-12-07T03:33:52;13.45;;;9.45;;
38787;SDS011;24536;45.488;12.238;2022-12-07T03:36:39;11.93;;;9.63;;
38787;SDS011;24536;45.488;12.238;2022-12-07T03:39:17;13.35;;;10.73;;
38787;SDS011;24536;45.488;12.238;2022-12-07T03:41:51;11.50;;;9.73;;
38787;SDS011;24536;45.488;12.238;2022-12-07T03:44:18;12.77;;;9.80;;
38787;SDS011;24536;45.488;12.238;2022-12-07T03:46:55;12.68;;;9.68;;
38787;SDS011;24536;45.488;12.238;2022-12-07T03:49:30;12.25;;;10.02;;
38787;SDS011;24536;45.488;12.238;2022-12-07T03:57:39;11.45;;;8.70;;
38787;SDS011;24536;45.488;12.238;2022-12-07T04:00:08;13.60;;;9.85;;
38787;SDS011;24536;45.488;12.238;2022-12-07T04:02:35;10.65;;;9.00;;
38787;SDS011;24536;45.488;12.238;2022-12-07T04:05:01;13.85;;;10.75;;
38787;SDS011;24536;45.488;12.238;2022-12-07T04:07:27;12.75;;;8.98;;
38787;SDS011;24536;45.488;12.238;2022-12-07T04:09:53;12.57;;;10.27;;
38787;SDS011;24536;45.488;12.238;2022-12-07T04:12:20;10.95;;;8.70;;
38787;SDS011;24536;45.488;12.238;2022-12-07T04:14:46;10.75;;;8.38;;
38787;SDS011;24536;45.488;12.238;2022-12-07T04:17:12;11.32;;;9.27;;
38787;SDS011;24536;45.488;12.238;2022-12-07T04:19:37;10.82;;;8.50;;
38787;SDS011;24536;45.488;12.238;2022-12-07T04:22:04;9.75;;;8.32;;
38787;SDS011;24536;45.488;12.238;2022-12-07T04:24:30;11.32;;;8.07;;
38787;SDS011;24536;45.488;12.238;2022-12-07T04:26:57;11.95;;;8.57;;
38787;SDS011;24536;45.488;12.238;2022-12-07T04:29:23;8.57;;;7.65;;
38787;SDS011;24536;45.488;12.238;2022-12-07T04:31:50;14.40;;;10.45;;
38787;SDS011;24536;45.488;12.238;2022-12-07T04:34:16;11.02;;;8.52;;
38787;SDS011;24536;45.488;12.238;2022-12-07T04:36:43;10.57;;;7.93;;
38787;SDS011;24536;45.488;12.238;2022-12-07T04:39:20;9.95;;;7.60;;
38787;SDS011;24536;45.488;12.238;2022-12-07T04:41:48;11.07;;;7.93;;
38787;SDS011;24536;45.488;12.238;2022-12-07T04:44:14;11.77;;;8.25;;
38787;SDS011;24536;45.488;12.238;2022-12-07T04:46:40;9.98;;;7.68;;
38787;SDS011;24536;45.488;12.238;2022-12-07T04:49:07;14.23;;;9.93;;
38787;SDS011;24536;45.488;12.238;2022-12-07T04:51:32;11.65;;;8.45;;
38787;SDS011;24536;45.488;12.238;2022-12-07T04:53:58;13.07;;;8.48;;
38787;SDS011;24536;45.488;12.238;2022-12-07T04:56:24;10.80;;;7.95;;
38787;SDS011;24536;45.488;12.238;2022-12-07T04:58:51;10.57;;;7.28;;
38787;SDS011;24536;45.488;12.238;2022-12-07T05:01:18;10.60;;;8.00;;
38787;SDS011;24536;45.488;12.238;2022-12-07T05:03:44;12.55;;;8.07;;
38787;SDS011;24536;45.488;12.238;2022-12-07T05:06:10;10.38;;;7.75;;
38787;SDS011;24536;45.488;12.238;2022-12-07T05:08:37;10.20;;;7.55;;
38787;SDS011;24536;45.488;12.238;2022-12-07T05:11:04;12.38;;;8.50;;
38787;SDS011;24536;45.488;12.238;2022-12-07T05:13:30;11.05;;;7.22;;
38787;SDS011;24536;45.488;12.238;2022-12-07T05:15:57;9.15;;;7.40;;
38787;SDS011;24536;45.488;12.238;2022-12-07T05:18:23;11.38;;;7.60;;
38787;SDS011;24536;45.488;12.238;2022-12-07T05:20:49;10.88;;;7.07;;
38787;SDS011;24536;45.488;12.238;2022-12-07T05:23:16;10.52;;;7.72;;
38787;SDS011;24536;45.488;12.238;2022-12-07T05:25:42;9.07;;;6.93;;
38787;SDS011;24536;45.488;12.238;2022-12-07T05:28:07;9.68;;;7.22;;
38787;SDS011;24536;45.488;12.238;2022-12-07T05:30:33;9.90;;;6.63;;
38787;SDS011;24536;45.488;12.238;2022-12-07T05:32:59;8.65;;;6.68;;
38787;SDS011;24536;45.488;12.238;2022-12-07T05:35:25;10.10;;;7.70;;
38787;SDS011;24536;45.488;12.238;2022-12-07T05:37:51;10.43;;;7.70;;
38787;SDS011;24536;45.488;12.238;2022-12-07T05:40:16;11.63;;;8.25;;
38787;SDS011;24536;45.488;12.238;2022-12-07T05:42:44;10.07;;;7.43;;
38787;SDS011;24536;45.488;12.238;2022-12-07T05:45:10;10.32;;;7.63;;
38787;SDS011;24536;45.488;12.238;2022-12-07T05:47:36;10.48;;;7.45;;
38787;SDS011;24536;45.488;12.238;2022-12-07T05:50:01;9.75;;;7.25;;
38787;SDS011;24536;45.488;12.238;2022-12-07T05:52:28;11.82;;;7.88;;
38787;SDS011;24536;45.488;12.238;2022-12-07T05:54:54;10.40;;;7.28;;
38787;SDS011;24536;45.488;12.238;2022-12-07T05:57:19;17.55;;;9.30;;
38787;SDS011;24536;45.488;12.238;2022-12-07T05:59:45;11.95;;;7.88;;
38787;SDS011;24536;45.488;12.238;2022-12-07T06:02:12;9.35;;;6.45;;
38787;SDS011;24536;45.488;12.238;2022-12-07T06:04:40;10.27;;;6.78;;
38787;SDS011;24536;45.488;12.238;2022-12-07T06:07:07;10.00;;;7.68;;
38787;SDS011;24536;45.488;12.238;2022-12-07T06:09:33;11.75;;;7.35;;
38787;SDS011;24536;45.488;12.238;2022-12-07T06:12:00;9.20;;;6.65;;
38787;SDS011;24536;45.488;12.238;2022-12-07T06:14:44;10.68;;;7.35;;
38787;SDS011;24536;45.488;12.238;2022-12-07T06:17:10;11.07;;;7.75;;
38787;SDS011;24536;45.488;12.238;2022-12-07T06:19:37;8.75;;;7.05;;
38787;SDS011;24536;45.488;12.238;2022-12-07T06:22:04;9.30;;;7.57;;
38787;SDS011;24536;45.488;12.238;2022-12-07T06:24:30;12.05;;;8.45;;
38787;SDS011;24536;45.488;12.238;2022-12-07T06:26:57;12.52;;;8.98;;
38787;SDS011;24536;45.488;12.238;2022-12-07T06:29:23;13.70;;;8.65;;
38787;SDS011;24536;45.488;12.238;2022-12-07T06:31:48;13.10;;;9.27;;
38787;SDS011;24536;45.488;12.238;2022-12-07T06:34:16;9.73;;;7.10;;
38787;SDS011;24536;45.488;12.238;2022-12-07T06:36:44;9.15;;;7.18;;
38787;SDS011;24536;45.488;12.238;2022-12-07T06:39:10;9.93;;;7.60;;
38787;SDS011;24536;45.488;12.238;2022-12-07T06:41:37;10.40;;;7.65;;
38787;SDS011;24536;45.488;12.238;2022-12-07T06:44:06;9.20;;;6.82;;
38787;SDS011;24536;45.488;12.238;2022-12-07T06:46:32;13.25;;;7.82;;
38787;SDS011;24536;45.488;12.238;2022-12-07T06:49:00;9.88;;;7.22;;
38787;SDS011;24536;45.488;12.238;2022-12-07T06:51:26;9.93;;;6.68;;
38787;SDS011;24536;45.488;12.238;2022-12-07T06:53:51;8.20;;;6.97;;
38787;SDS011;24536;45.488;12.238;2022-12-07T06:56:17;12.63;;;8.23;;
38787;SDS011;24536;45.488;12.238;2022-12-07T06:58:44;9.63;;;7.68;;
38787;SDS011;24536;45.488;12.238;2022-12-07T07:01:11;9.13;;;7.60;;
38787;SDS011;24536;45.488;12.238;2022-12-07T07:03:38;11.60;;;8.10;;
38787;SDS011;24536;45.488;12.238;2022-12-07T07:06:04;9.95;;;7.63;;
38787;SDS011;24536;45.488;12.238;2022-12-07T07:08:31;11.30;;;8.45;;
38787;SDS011;24536;45.488;12.238;2022-12-07T07:10:56;10.35;;;7.72;;
38787;SDS011;24536;45.488;12.238;2022-12-07T07:13:22;10.48;;;7.38;;
38787;SDS011;24536;45.488;12.238;2022-12-07T07:15:48;12.40;;;8.20;;
38787;SDS011;24536;45.488;12.238;2022-12-07T07:18:14;9.68;;;7.90;;
38787;SDS011;24536;45.488;12.238;2022-12-07T07:20:39;13.20;;;8.48;;
38787;SDS011;24536;45.488;12.238;2022-12-07T07:23:05;11.15;;;8.18;;
38787;SDS011;24536;45.488;12.238;2022-12-07T07:25:31;9.70;;;7.10;;
38787;SDS011;24536;45.488;12.238;2022-12-07T07:27:57;14.95;;;8.10;;
38787;SDS011;24536;45.488;12.238;2022-12-07T07:30:23;13.40;;;7.90;;
38787;SDS011;24536;45.488;12.238;2022-12-07T07:32:49;11.15;;;7.57;;
38787;SDS011;24536;45.488;12.238;2022-12-07T07:35:15;11.48;;;7.70;;
38787;SDS011;24536;45.488;12.238;2022-12-07T07:37:41;10.18;;;7.18;;
38787;SDS011;24536;45.488;12.238;2022-12-07T07:40:07;13.85;;;8.73;;
38787;SDS011;24536;45.488;12.238;2022-12-07T07:42:34;11.55;;;8.05;;
38787;SDS011;24536;45.488;12.238;2022-12-07T07:44:59;10.88;;;7.90;;
38787;SDS011;24536;45.488;12.238;2022-12-07T07:47:25;10.57;;;7.80;;
38787;SDS011;24536;45.488;12.238;2022-12-07T07:49:51;11.68;;;7.72;;
38787;SDS011;24536;45.488;12.238;2022-12-07T07:52:17;12.85;;;7.72;;
38787;SDS011;24536;45.488;12.238;2022-12-07T07:54:42;13.82;;;9.48;;
38787;SDS011;24536;45.488;12.238;2022-12-07T07:57:11;11.98;;;8.10;;
38787;SDS011;24536;45.488;12.238;2022-12-07T07:59:37;10.30;;;7.65;;
38787;SDS011;24536;45.488;12.238;2022-12-07T08:02:02;11.60;;;8.50;;
38787;SDS011;24536;45.488;12.238;2022-12-07T08:04:28;12.77;;;7.95;;
38787;SDS011;24536;45.488;12.238;2022-12-07T08:06:54;11.18;;;8.20;;
38787;SDS011;24536;45.488;12.238;2022-12-07T08:09:21;12.13;;;8.63;;
38787;SDS011;24536;45.488;12.238;2022-12-07T08:11:47;11.57;;;8.00;;
38787;SDS011;24536;45.488;12.238;2022-12-07T08:14:13;9.70;;;7.65;;
38787;SDS011;24536;45.488;12.238;2022-12-07T08:16:39;12.48;;;8.35;;
38787;SDS011;24536;45.488;12.238;2022-12-07T08:19:05;12.82;;;8.63;;
38787;SDS011;24536;45.488;12.238;2022-12-07T08:21:31;17.55;;;8.82;;
38787;SDS011;24536;45.488;12.238;2022-12-07T08:23:57;10.15;;;8.25;;
38787;SDS011;24536;45.488;12.238;2022-12-07T08:26:23;11.27;;;8.15;;
38787;SDS011;24536;45.488;12.238;2022-12-07T08:28:48;11.13;;;8.68;;
38787;SDS011;24536;45.488;12.238;2022-12-07T08:31:15;15.05;;;8.88;;
38787;SDS011;24536;45.488;12.238;2022-12-07T08:33:44;14.55;;;8.43;;
38787;SDS011;24536;45.488;12.238;2022-12-07T08:36:11;13.88;;;8.10;;
38787;SDS011;24536;45.488;12.238;2022-12-07T08:38:38;10.60;;;8.23;;
38787;SDS011;24536;45.488;12.238;2022-12-07T08:41:05;13.35;;;8.93;;
38787;SDS011;24536;45.488;12.238;2022-12-07T08:43:32;10.88;;;8.20;;
38787;SDS011;24536;45.488;12.238;2022-12-07T08:48:46;11.30;;;8.20;;
38787;SDS011;24536;45.488;12.238;2022-12-07T08:51:16;17.70;;;8.38;;
38787;SDS011;24536;45.488;12.238;2022-12-07T08:53:42;14.43;;;8.80;;
38787;SDS011;24536;45.488;12.238;2022-12-07T08:56:08;12.45;;;8.57;;
38787;SDS011;24536;45.488;12.238;2022-12-07T08:58:34;12.07;;;8.85;;
38787;SDS011;24536;45.488;12.238;2022-12-07T09:01:02;10.60;;;8.13;;
38787;SDS011;24536;45.488;12.238;2022-12-07T09:03:28;11.43;;;8.00;;
38787;SDS011;24536;45.488;12.238;2022-12-07T09:05:54;9.90;;;7.60;;
38787;SDS011;24536;45.488;12.238;2022-12-07T09:08:21;14.52;;;8.75;;
38787;SDS011;24536;45.488;12.238;2022-12-07T09:10:48;10.55;;;7.45;;
38787;SDS011;24536;45.488;12.238;2022-12-07T09:13:14;9.77;;;7.05;;
38787;SDS011;24536;45.488;12.238;2022-12-07T09:15:39;11.85;;;7.82;;
38787;SDS011;24536;45.488;12.238;2022-12-07T09:18:05;10.30;;;7.03;;
38787;SDS011;24536;45.488;12.238;2022-12-07T09:20:32;8.63;;;6.60;;
38787;SDS011;24536;45.488;12.238;2022-12-07T09:22:58;13.48;;;6.88;;
38787;SDS011;24536;45.488;12.238;2022-12-07T09:25:24;9.93;;;5.95;;
38787;SDS011;24536;45.488;12.238;2022-12-07T09:27:54;9.43;;;6.43;;
38787;SDS011;24536;45.488;12.238;2022-12-07T09:30:21;10.25;;;6.60;;
38787;SDS011;24536;45.488;12.238;2022-12-07T09:32:47;10.77;;;6.30;;
38787;SDS011;24536;45.488;12.238;2022-12-07T09:35:13;12.90;;;6.68;;
38787;SDS011;24536;45.488;12.238;2022-12-07T09:37:38;15.07;;;6.15;;
38787;SDS011;24536;45.488;12.238;2022-12-07T09:40:04;11.02;;;6.75;;
38787;SDS011;24536;45.488;12.238;2022-12-07T09:42:35;18.98;;;7.30;;
38787;SDS011;24536;45.488;12.238;2022-12-07T09:45:04;10.05;;;6.90;;
38787;SDS011;24536;45.488;12.238;2022-12-07T09:47:32;9.38;;;6.60;;
38787;SDS011;24536;45.488;12.238;2022-12-07T09:50:05;10.98;;;6.53;;
38787;SDS011;24536;45.488;12.238;2022-12-07T09:52:37;9.95;;;6.22;;
38787;SDS011;24536;45.488;12.238;2022-12-07T09:55:03;12.63;;;6.38;;
38787;SDS011;24536;45.488;12.238;2022-12-07T09:57:33;9.02;;;6.32;;
38787;SDS011;24536;45.488;12.238;2022-12-07T10:00:04;8.02;;;6.00;;
38787;SDS011;24536;45.488;12.238;2022-12-07T10:02:40;8.23;;;5.80;;
38787;SDS011;24536;45.488;12.238;2022-12-07T10:05:10;8.15;;;5.95;;
38787;SDS011;24536;45.488;12.238;2022-12-07T10:07:43;6.72;;;5.10;;
38787;SDS011;24536;45.488;12.238;2022-12-07T10:10:31;7.63;;;5.45;;
38787;SDS011;24536;45.488;12.238;2022-12-07T10:15:22;7.65;;;5.95;;
38787;SDS011;24536;45.488;12.238;2022-12-07T10:17:51;11.30;;;6.15;;
38787;SDS011;24536;45.488;12.238;2022-12-07T10:20:24;8.25;;;5.35;;
38787;SDS011;24536;45.488;12.238;2022-12-07T10:23:05;8.55;;;6.00;;
38787;SDS011;24536;45.488;12.238;2022-12-07T10:25:38;6.28;;;4.53;;
38787;SDS011;24536;45.488;12.238;2022-12-07T10:30:46;12.82;;;6.20;;
38787;SDS011;24536;45.488;12.238;2022-12-07T10:33:28;7.32;;;5.47;;
38787;SDS011;24536;45.488;12.238;2022-12-07T10:35:54;8.52;;;5.65;;
38787;SDS011;24536;45.488;12.238;2022-12-07T10:38:20;6.65;;;4.30;;
38787;SDS011;24536;45.488;12.238;2022-12-07T10:40:46;6.15;;;4.22;;
38787;SDS011;24536;45.488;12.238;2022-12-07T11:01:32;4.93;;;3.70;;
38787;SDS011;24536;45.488;12.238;2022-12-07T11:07:11;5.85;;;4.13;;
38787;SDS011;24536;45.488;12.238;2022-12-07T11:10:02;7.25;;;4.20;;
38787;SDS011;24536;45.488;12.238;2022-12-07T11:17:48;6.80;;;3.63;;
38787;SDS011;24536;45.488;12.238;2022-12-07T11:23:15;7.25;;;4.53;;
38787;SDS011;24536;45.488;12.238;2022-12-07T11:29:06;5.18;;;3.97;;
38787;SDS011;24536;45.488;12.238;2022-12-07T11:34:40;9.80;;;4.47;;
38787;SDS011;24536;45.488;12.238;2022-12-07T11:37:16;6.53;;;5.00;;
38787;SDS011;24536;45.488;12.238;2022-12-07T11:39:52;6.65;;;4.80;;
38787;SDS011;24536;45.488;12.238;2022-12-07T11:42:27;6.47;;;4.10;;
38787;SDS011;24536;45.488;12.238;2022-12-07T11:47:51;6.57;;;4.00;;
38787;SDS011;24536;45.488;12.238;2022-12-07T11:53:03;5.72;;;4.20;;
38787;SDS011;24536;45.488;12.238;2022-12-07T11:55:42;8.25;;;4.28;;
38787;SDS011;24536;45.488;12.238;2022-12-07T14:17:52;5.50;;;2.38;;
38787;SDS011;24536;45.488;12.238;2022-12-07T14:20:38;4.00;;;2.05;;
38787;SDS011;24536;45.488;12.238;2022-12-07T14:23:06;2.97;;;2.08;;
38787;SDS011;24536;45.488;12.238;2022-12-07T14:25:51;2.70;;;2.33;;
38787;SDS011;24536;45.488;12.238;2022-12-07T14:28:37;3.17;;;2.10;;
38787;SDS011;24536;45.488;12.238;2022-12-07T14:31:07;3.28;;;2.60;;
38787;SDS011;24536;45.488;12.238;2022-12-07T14:33:49;2.85;;;2.00;;
38787;SDS011;24536;45.488;12.238;2022-12-07T14:36:15;4.18;;;2.63;;
38787;SDS011;24536;45.488;12.238;2022-12-07T14:38:40;4.72;;;2.90;;
38787;SDS011;24536;45.488;12.238;2022-12-07T14:41:10;4.57;;;2.22;;
38787;SDS011;24536;45.488;12.238;2022-12-07T14:43:58;3.10;;;2.38;;
38787;SDS011;24536;45.488;12.238;2022-12-07T14:46:24;3.03;;;2.13;;
38787;SDS011;24536;45.488;12.238;2022-12-07T14:48:50;2.75;;;2.17;;
38787;SDS011;24536;45.488;12.238;2022-12-07T14:51:15;4.25;;;2.28;;
38787;SDS011;24536;45.488;12.238;2022-12-07T14:53:46;2.78;;;2.20;;
38787;SDS011;24536;45.488;12.238;2022-12-07T14:59:05;10.88;;;3.22;;
38787;SDS011;24536;45.488;12.238;2022-12-07T15:01:30;4.60;;;2.15;;
38787;SDS011;24536;45.488;12.238;2022-12-07T15:03:56;3.55;;;2.17;;
38787;SDS011;24536;45.488;12.238;2022-12-07T15:06:22;3.47;;;2.50;;
38787;SDS011;24536;45.488;12.238;2022-12-07T15:08:48;6.50;;;2.80;;
38787;SDS011;24536;45.488;12.238;2022-12-07T15:11:15;4.72;;;2.67;;
38787;SDS011;24536;45.488;12.238;2022-12-07T15:13:42;3.55;;;2.60;;
38787;SDS011;24536;45.488;12.238;2022-12-07T15:16:27;5.45;;;2.63;;
38787;SDS011;24536;45.488;12.238;2022-12-07T15:18:53;3.85;;;2.38;;
38787;SDS011;24536;45.488;12.238;2022-12-07T15:21:19;4.03;;;2.95;;
38787;SDS011;24536;45.488;12.238;2022-12-07T15:23:45;4.15;;;3.03;;
38787;SDS011;24536;45.488;12.238;2022-12-07T15:26:12;5.10;;;3.15;;
38787;SDS011;24536;45.488;12.238;2022-12-07T15:28:39;5.47;;;3.50;;
38787;SDS011;24536;45.488;12.238;2022-12-07T15:31:12;8.20;;;3.70;;
38787;SDS011;24536;45.488;12.238;2022-12-07T15:33:39;5.20;;;2.83;;
38787;SDS011;24536;45.488;12.238;2022-12-07T15:36:05;8.02;;;3.25;;
38787;SDS011;24536;45.488;12.238;2022-12-07T15:38:31;4.97;;;3.35;;
38787;SDS011;24536;45.488;12.238;2022-12-07T15:40:57;4.03;;;2.65;;
38787;SDS011;24536;45.488;12.238;2022-12-07T15:43:22;4.82;;;2.83;;
38787;SDS011;24536;45.488;12.238;2022-12-07T15:46:07;4.40;;;2.70;;
38787;SDS011;24536;45.488;12.238;2022-12-07T15:48:33;6.38;;;3.38;;
38787;SDS011;24536;45.488;12.238;2022-12-07T15:51:05;8.52;;;4.60;;
38787;SDS011;24536;45.488;12.238;2022-12-07T15:53:32;7.45;;;3.63;;
38787;SDS011;24536;45.488;12.238;2022-12-07T15:55:59;8.23;;;3.60;;
38787;SDS011;24536;45.488;12.238;2022-12-07T15:58:25;6.75;;;4.00;;
38787;SDS011;24536;45.488;12.238;2022-12-07T16:00:51;5.32;;;3.30;;
38787;SDS011;24536;45.488;12.238;2022-12-07T16:03:17;7.05;;;3.60;;
38787;SDS011;24536;45.488;12.238;2022-12-07T16:05:48;4.93;;;3.20;;
38787;SDS011;24536;45.488;12.238;2022-12-07T16:08:14;11.10;;;3.90;;
38787;SDS011;24536;45.488;12.238;2022-12-07T16:10:40;6.40;;;3.92;;
38787;SDS011;24536;45.488;12.238;2022-12-07T16:13:08;5.28;;;3.70;;
38787;SDS011;24536;45.488;12.238;2022-12-07T16:15:38;5.93;;;3.97;;
38787;SDS011;24536;45.488;12.238;2022-12-07T16:18:04;5.45;;;3.50;;
38787;SDS011;24536;45.488;12.238;2022-12-07T16:20:30;4.95;;;3.50;;
38787;SDS011;24536;45.488;12.238;2022-12-07T16:22:55;5.32;;;3.60;;
38787;SDS011;24536;45.488;12.238;2022-12-07T16:25:21;6.28;;;3.67;;
38787;SDS011;24536;45.488;12.238;2022-12-07T16:27:47;5.13;;;3.40;;
38787;SDS011;24536;45.488;12.238;2022-12-07T16:30:13;6.22;;;3.60;;
38787;SDS011;24536;45.488;12.238;2022-12-07T16:32:41;5.70;;;3.17;;
38787;SDS011;24536;45.488;12.238;2022-12-07T16:35:07;7.32;;;4.22;;
38787;SDS011;24536;45.488;12.238;2022-12-07T16:37:33;8.13;;;5.07;;
38787;SDS011;24536;45.488;12.238;2022-12-07T16:39:59;7.68;;;4.47;;
38787;SDS011;24536;45.488;12.238;2022-12-07T16:42:24;6.50;;;4.45;;
38787;SDS011;24536;45.488;12.238;2022-12-07T16:44:51;8.18;;;4.75;;
38787;SDS011;24536;45.488;12.238;2022-12-07T16:47:17;9.75;;;4.90;;
38787;SDS011;24536;45.488;12.238;2022-12-07T16:49:43;9.35;;;4.75;;
38787;SDS011;24536;45.488;12.238;2022-12-07T16:52:08;7.53;;;5.07;;
38787;SDS011;24536;45.488;12.238;2022-12-07T16:54:35;7.32;;;4.93;;
38787;SDS011;24536;45.488;12.238;2022-12-07T16:57:01;6.18;;;4.32;;
38787;SDS011;24536;45.488;12.238;2022-12-07T16:59:26;6.47;;;4.45;;
38787;SDS011;24536;45.488;12.238;2022-12-07T17:01:52;4.90;;;3.65;;
38787;SDS011;24536;45.488;12.238;2022-12-07T17:04:18;6.72;;;4.35;;
38787;SDS011;24536;45.488;12.238;2022-12-07T17:06:43;6.13;;;4.47;;
38787;SDS011;24536;45.488;12.238;2022-12-07T17:09:09;5.78;;;4.35;;
38787;SDS011;24536;45.488;12.238;2022-12-07T17:11:36;6.85;;;4.63;;
38787;SDS011;24536;45.488;12.238;2022-12-07T17:14:02;8.65;;;5.18;;
38787;SDS011;24536;45.488;12.238;2022-12-07T17:16:47;8.48;;;5.68;;
38787;SDS011;24536;45.488;12.238;2022-12-07T17:19:13;8.48;;;5.75;;
38787;SDS011;24536;45.488;12.238;2022-12-07T17:21:40;11.23;;;6.28;;
38787;SDS011;24536;45.488;12.238;2022-12-07T17:24:08;10.10;;;5.70;;
38787;SDS011;24536;45.488;12.238;2022-12-07T17:26:35;12.32;;;6.68;;
38787;SDS011;24536;45.488;12.238;2022-12-07T17:29:03;13.00;;;7.00;;
38787;SDS011;24536;45.488;12.238;2022-12-07T17:31:29;14.02;;;9.15;;
38787;SDS011;24536;45.488;12.238;2022-12-07T17:33:55;14.30;;;10.10;;
38787;SDS011;24536;45.488;12.238;2022-12-07T17:36:22;17.55;;;10.80;;
38787;SDS011;24536;45.488;12.238;2022-12-07T17:38:51;16.77;;;10.50;;
38787;SDS011;24536;45.488;12.238;2022-12-07T17:41:21;13.90;;;9.13;;
38787;SDS011;24536;45.488;12.238;2022-12-07T17:44:11;15.88;;;9.30;;
38787;SDS011;24536;45.488;12.238;2022-12-07T17:46:41;15.60;;;9.80;;
38787;SDS011;24536;45.488;12.238;2022-12-07T17:49:08;16.45;;;10.15;;
38787;SDS011;24536;45.488;12.238;2022-12-07T17:51:34;19.17;;;11.52;;
38787;SDS011;24536;45.488;12.238;2022-12-07T17:54:18;15.55;;;10.18;;
38787;SDS011;24536;45.488;12.238;2022-12-07T17:56:44;15.25;;;10.63;;
38787;SDS011;24536;45.488;12.238;2022-12-07T17:59:10;18.10;;;11.30;;
38787;SDS011;24536;45.488;12.238;2022-12-07T18:01:36;20.73;;;12.10;;
38787;SDS011;24536;45.488;12.238;2022-12-07T18:04:02;19.33;;;11.98;;
38787;SDS011;24536;45.488;12.238;2022-12-07T18:06:29;19.50;;;11.50;;
38787;SDS011;24536;45.488;12.238;2022-12-07T18:08:55;17.45;;;12.05;;
38787;SDS011;24536;45.488;12.238;2022-12-07T18:11:21;18.70;;;12.35;;
38787;SDS011;24536;45.488;12.238;2022-12-07T18:27:10;25.08;;;15.57;;
38787;SDS011;24536;45.488;12.238;2022-12-07T18:29:36;19.60;;;14.68;;
38787;SDS011;24536;45.488;12.238;2022-12-07T18:32:01;20.60;;;14.55;;